createdAt,value
2019-01-28T00:01:09.625Z,97388.05
2019-01-28T00:04:12.643Z,97382.36
2019-01-28T00:07:15.972Z,97382.51
2019-01-28T00:10:19.572Z,97383.88
2019-01-28T00:13:22.503Z,97388.84
2019-01-28T00:16:25.433Z,97383.28
2019-01-28T00:19:28.342Z,97379.28
2019-01-28T00:22:31.580Z,97391.92
2019-01-28T00:25:34.883Z,97382.95
2019-01-28T00:28:38.908Z,97374.97
2019-01-28T00:31:42.189Z,97376.02
2019-01-28T00:34:45.119Z,97373.00
2019-01-28T00:37:48.051Z,97376.07
2019-01-28T00:40:52.098Z,97377.53
2019-01-28T00:43:55.700Z,97364.23
2019-01-28T00:46:59.342Z,97374.70
2019-01-28T00:50:02.672Z,97364.17
2019-01-28T00:53:06.388Z,97357.84
2019-01-28T00:56:09.602Z,97358.20
2019-01-28T00:59:12.534Z,97362.94
2019-01-28T01:02:15.786Z,97361.91
2019-01-28T01:05:18.691Z,97362.66
2019-01-28T01:08:21.942Z,97361.11
2019-01-28T01:11:25.643Z,97354.02
2019-01-28T01:14:28.558Z,97359.23
2019-01-28T01:17:31.834Z,97356.19
2019-01-28T01:20:34.732Z,97359.20
2019-01-28T01:23:38.000Z,97351.81
2019-01-28T01:26:41.578Z,97342.19
2019-01-28T01:29:45.204Z,97345.70
2019-01-28T01:32:48.473Z,97345.45
2019-01-28T01:35:52.832Z,97360.73
2019-01-28T01:38:55.766Z,97344.12
2019-01-28T01:41:58.695Z,97340.87
2019-01-28T01:45:01.896Z,97336.36
2019-01-28T01:48:05.627Z,97336.48
2019-01-28T01:51:09.119Z,97328.67
2019-01-28T01:54:12.610Z,97335.13
2019-01-28T01:57:15.820Z,97330.14
2019-01-28T02:00:19.941Z,97329.41
2019-01-28T02:03:23.431Z,97337.19
2019-01-28T02:06:26.360Z,97321.80
2019-01-28T02:09:29.622Z,97318.72
2019-01-28T02:12:33.203Z,97312.19
2019-01-28T02:15:36.414Z,97305.20
2019-01-28T02:18:39.591Z,97309.82
2019-01-28T02:21:43.311Z,97300.61
2019-01-28T02:24:46.243Z,97294.32
2019-01-28T02:27:49.478Z,97288.98
2019-01-28T02:30:52.738Z,97288.43
2019-01-28T02:33:55.656Z,97288.64
2019-01-28T02:36:58.633Z,97284.31
2019-01-28T02:40:01.552Z,97299.03
2019-01-28T02:43:04.487Z,97278.02
2019-01-28T02:46:07.416Z,97276.49
2019-01-28T02:49:10.622Z,97283.91
2019-01-28T02:52:14.951Z,97275.78
2019-01-28T02:55:18.741Z,97266.95
2019-01-28T02:58:22.024Z,97275.11
2019-01-28T03:01:24.986Z,97268.68
2019-01-28T03:04:28.205Z,97262.34
2019-01-28T03:07:31.703Z,97267.61
2019-01-28T03:10:34.607Z,97262.56
2019-01-28T03:13:39.317Z,97260.38
2019-01-28T03:16:42.222Z,97248.95
2019-01-28T03:19:45.440Z,97257.11
2019-01-28T03:22:49.074Z,97252.92
2019-01-28T03:25:52.296Z,97250.08
2019-01-28T03:28:56.010Z,97251.19
2019-01-28T03:31:59.201Z,97249.39
2019-01-28T03:35:02.702Z,97240.53
2019-01-28T03:38:05.625Z,97250.41
2019-01-28T03:41:08.533Z,97240.73
2019-01-28T03:44:11.479Z,97242.97
2019-01-28T03:47:14.666Z,97246.91
2019-01-28T03:50:18.216Z,97241.51
2019-01-28T03:53:21.333Z,97245.30
2019-01-28T03:56:24.542Z,97233.99
2019-01-28T03:59:27.472Z,97244.28
2019-01-28T04:02:30.498Z,97236.78
2019-01-28T04:05:33.427Z,97243.56
2019-01-28T04:08:36.351Z,97243.63
2019-01-28T04:11:39.683Z,97244.30
2019-01-28T04:14:43.006Z,97243.89
2019-01-28T04:17:46.594Z,97245.16
2019-01-28T04:20:49.876Z,97242.05
2019-01-28T04:23:53.098Z,97237.51
2019-01-28T04:26:56.007Z,97236.20
2019-01-28T04:29:59.255Z,97227.11
2019-01-28T04:33:02.187Z,97228.22
2019-01-28T04:36:05.446Z,97228.13
2019-01-28T04:39:08.604Z,97218.73
2019-01-28T04:42:12.646Z,97225.16
2019-01-28T04:45:17.236Z,97223.48
2019-01-28T04:48:20.162Z,97223.85
2019-01-28T04:51:23.427Z,97220.05
2019-01-28T04:54:26.741Z,97218.23
2019-01-28T04:57:29.963Z,97222.33
2019-01-28T05:00:33.545Z,97219.40
2019-01-28T05:03:36.545Z,97215.86
2019-01-28T05:06:39.857Z,97222.12
2019-01-28T05:09:42.894Z,97213.14
2019-01-28T05:12:46.832Z,97223.11
2019-01-28T05:15:50.539Z,97222.77
2019-01-28T05:18:53.446Z,97221.80
2019-01-28T05:21:58.123Z,97217.86
2019-01-28T05:25:01.378Z,97221.80
2019-01-28T05:28:04.586Z,97221.64
2019-01-28T05:31:08.399Z,97221.19
2019-01-28T05:34:11.992Z,97216.33
2019-01-28T05:37:16.706Z,97220.55
2019-01-28T05:40:22.041Z,97221.41
2019-01-28T05:43:24.940Z,97211.97
2019-01-28T05:46:28.198Z,97215.11
2019-01-28T05:49:31.089Z,97212.90
2019-01-28T05:52:35.006Z,97221.91
2019-01-28T05:55:39.218Z,97224.63
2019-01-28T05:58:42.419Z,97226.06
2019-01-28T06:01:45.759Z,97227.05
2019-01-28T06:04:49.019Z,97225.98
2019-01-28T06:07:52.426Z,97229.26
2019-01-28T06:10:55.353Z,97227.05
2019-01-28T06:13:58.347Z,97232.44
2019-01-28T06:17:01.605Z,97231.13
2019-01-28T06:20:08.903Z,97226.86
2019-01-28T06:23:12.077Z,97235.83
2019-01-28T06:26:15.263Z,97239.08
2019-01-28T06:29:18.178Z,97232.55
2019-01-28T06:32:21.131Z,97235.94
2019-01-28T06:35:24.533Z,97236.20
2019-01-28T06:38:27.470Z,97234.80
2019-01-28T06:41:30.734Z,97241.55
2019-01-28T06:44:33.661Z,97243.94
2019-01-28T06:47:36.928Z,97240.39
2019-01-28T06:50:40.191Z,97241.93
2019-01-28T06:53:43.816Z,97239.09
2019-01-28T06:56:47.243Z,97247.23
2019-01-28T06:59:50.476Z,97257.09
2019-01-28T07:02:54.183Z,97255.02
2019-01-28T07:05:57.094Z,97249.57
2019-01-28T07:09:00.031Z,97255.73
2019-01-28T07:12:03.062Z,97262.30
2019-01-28T07:15:08.400Z,97274.02
2019-01-28T07:18:11.449Z,97262.40
2019-01-28T07:21:15.104Z,97262.13
2019-01-28T07:24:18.687Z,97266.84
2019-01-28T07:27:21.883Z,97272.77
2019-01-28T07:30:36.519Z,97269.86
2019-01-28T07:33:40.142Z,97271.83
2019-01-28T07:36:43.896Z,97276.45
2019-01-28T07:39:46.843Z,97273.14
2019-01-28T07:42:50.049Z,97281.24
2019-01-28T07:45:52.986Z,97292.31
2019-01-28T07:48:55.926Z,97284.26
2019-01-28T07:51:58.836Z,97292.38
2019-01-28T07:55:02.396Z,97303.00
2019-01-28T07:58:05.434Z,97301.48
2019-01-28T08:01:08.628Z,97306.17
2019-01-28T08:04:12.005Z,97307.02
2019-01-28T08:07:15.271Z,97306.97
2019-01-28T08:10:18.896Z,97320.83
2019-01-28T08:13:22.482Z,97319.13
2019-01-28T08:16:26.143Z,97332.16
2019-01-28T08:19:29.053Z,97323.33
2019-01-28T08:22:32.271Z,97326.08
2019-01-28T08:25:35.531Z,97337.16
2019-01-28T08:28:38.763Z,97331.84
2019-01-28T08:31:42.358Z,97343.56
2019-01-28T08:34:45.267Z,97347.03
2019-01-28T08:37:48.588Z,97351.76
2019-01-28T08:40:51.549Z,97347.88
2019-01-28T08:43:55.155Z,97360.32
2019-01-28T08:46:58.427Z,97359.37
2019-01-28T08:50:01.695Z,97359.02
2019-01-28T08:53:06.006Z,97363.66
2019-01-28T08:56:16.509Z,97367.35
2019-01-28T08:59:14.067Z,97376.05
2019-01-28T09:02:18.722Z,97376.41
2019-01-28T09:05:22.552Z,97377.75
2019-01-28T09:08:26.308Z,97379.69
2019-01-28T09:11:29.208Z,97379.91
2019-01-28T09:14:32.151Z,97390.19
2019-01-28T09:17:35.711Z,97398.58
2019-01-28T09:20:39.063Z,97406.69
2019-01-28T09:23:41.993Z,97418.36
2019-01-28T09:26:44.906Z,97423.86
2019-01-28T09:29:48.258Z,97435.11
2019-01-28T09:32:51.169Z,97433.84
2019-01-28T09:35:54.104Z,97438.73
2019-01-28T09:38:57.020Z,97445.27
2019-01-28T09:42:00.208Z,97454.91
2019-01-28T09:45:06.137Z,97463.20
2019-01-28T09:48:12.946Z,97467.84
2019-01-28T09:51:15.875Z,97473.74
2019-01-28T09:54:18.818Z,97480.50
2019-01-28T09:57:21.719Z,97491.30
2019-01-28T10:00:50.755Z,97497.62
2019-01-28T10:03:53.658Z,97503.98
2019-01-28T10:06:57.226Z,97512.75
2019-01-28T10:10:01.600Z,97508.41
2019-01-28T10:13:05.523Z,97519.29
2019-01-28T10:16:08.451Z,97533.48
2019-01-28T10:19:12.341Z,97533.55
2019-01-28T10:22:15.598Z,97544.09
2019-01-28T10:25:19.427Z,97548.98
2019-01-28T10:28:22.363Z,97548.47
2019-01-28T10:31:26.091Z,97560.28
2019-01-28T10:34:29.093Z,97568.38
2019-01-28T10:37:32.022Z,97567.39
2019-01-28T10:40:36.644Z,97561.54
2019-01-28T10:43:39.550Z,97577.25
2019-01-28T10:46:42.518Z,97582.57
2019-01-28T10:49:46.096Z,97586.98
2019-01-28T10:52:49.336Z,97596.27
2019-01-28T10:55:52.272Z,97599.95
2019-01-28T10:58:55.215Z,97606.08
2019-01-28T11:01:58.146Z,97610.32
2019-01-28T11:05:01.777Z,97608.05
2019-01-28T11:08:05.949Z,97622.75
2019-01-28T11:11:08.978Z,97625.72
2019-01-28T11:14:11.989Z,97627.80
2019-01-28T11:17:15.026Z,97632.64
2019-01-28T11:20:18.635Z,97636.03
2019-01-28T11:23:21.754Z,97646.37
2019-01-28T11:26:24.742Z,97649.58
2019-01-28T11:29:28.123Z,97655.33
2019-01-28T11:32:31.577Z,97661.77
2019-01-28T11:35:35.693Z,97664.98
2019-01-28T11:38:40.071Z,97669.28
2019-01-28T11:41:43.175Z,97675.65
2019-01-28T11:44:46.291Z,97678.27
2019-01-28T11:47:50.132Z,97686.08
2019-01-28T11:50:56.136Z,97688.30
2019-01-28T11:53:58.191Z,97690.59
2019-01-28T11:57:01.097Z,97685.04
2019-01-28T12:00:16.868Z,97697.59
2019-01-28T12:03:19.896Z,97698.63
2019-01-28T12:06:23.006Z,97712.55
2019-01-28T12:09:26.661Z,97714.03
2019-01-28T12:12:29.907Z,97716.64
2019-01-28T12:15:33.199Z,97726.66
2019-01-28T12:18:36.099Z,97739.71
2019-01-28T12:21:39.081Z,97738.75
2019-01-28T12:24:42.277Z,97742.38
2019-01-28T12:27:45.508Z,97742.38
2019-01-28T12:30:49.786Z,97756.41
2019-01-28T12:33:53.202Z,97758.14
2019-01-28T12:36:57.073Z,97775.83
2019-01-28T12:40:00.006Z,97779.47
2019-01-28T12:43:03.519Z,97785.16
2019-01-28T12:46:06.735Z,97790.63
2019-01-28T12:49:09.746Z,97792.48
2019-01-28T12:52:13.010Z,97811.98
2019-01-28T12:55:17.453Z,97809.58
2019-01-28T12:58:20.454Z,97818.82
2019-01-28T13:01:23.388Z,97849.98
2019-01-28T13:04:26.618Z,97847.57
2019-01-28T13:07:29.545Z,97856.72
2019-01-28T13:10:33.169Z,97854.20
2019-01-28T13:13:40.952Z,97860.04
2019-01-28T13:16:41.519Z,97866.71
2019-01-28T13:19:45.119Z,97873.28
2019-01-28T13:22:48.656Z,97882.73
2019-01-28T13:25:51.563Z,97892.88
2019-01-28T13:28:54.846Z,97898.27
2019-01-28T13:31:58.104Z,97914.38
2019-01-28T13:35:01.597Z,97930.53
2019-01-28T13:38:05.251Z,97935.80
2019-01-28T13:41:08.173Z,97931.61
2019-01-28T13:44:12.583Z,97947.58
2019-01-28T13:47:15.849Z,97948.28
2019-01-28T13:50:20.863Z,97950.53
2019-01-28T13:53:24.791Z,97963.05
2019-01-28T13:56:28.140Z,97972.73
2019-01-28T13:59:31.202Z,97994.13
2019-01-28T14:02:34.127Z,97996.20
2019-01-28T14:05:37.530Z,98008.84
2019-01-28T14:08:40.802Z,98019.83
2019-01-28T14:11:43.697Z,98026.53
2019-01-28T14:14:46.943Z,98031.60
2019-01-28T14:17:50.449Z,98031.95
2019-01-28T14:20:57.787Z,98048.23
2019-01-28T14:24:00.730Z,98068.06
2019-01-28T14:27:03.748Z,98066.31
2019-01-28T14:30:12.054Z,98080.25
2019-01-28T14:33:14.989Z,98085.00
2019-01-28T14:36:17.988Z,98095.78
2019-01-28T14:39:20.905Z,98095.54
2019-01-28T14:42:23.810Z,98102.08
2019-01-28T14:45:27.439Z,98114.66
2019-01-28T14:48:30.346Z,98107.94
2019-01-28T14:51:33.272Z,98123.26
2019-01-28T14:54:36.575Z,98136.48
2019-01-28T14:57:39.780Z,98143.77
2019-01-28T15:00:46.274Z,98142.84
2019-01-28T15:03:49.616Z,98156.28
2019-01-28T15:06:52.540Z,98180.59
2019-01-28T15:09:55.736Z,98181.08
2019-01-28T15:12:59.236Z,98192.23
2019-01-28T15:16:08.944Z,98187.75
2019-01-28T15:19:08.378Z,98199.55
2019-01-28T15:22:11.303Z,98194.03
2019-01-28T15:25:14.900Z,98213.08
2019-01-28T15:28:17.930Z,98226.32
2019-01-28T15:31:20.858Z,98222.18
2019-01-28T15:34:24.498Z,98233.41
2019-01-28T15:37:28.183Z,98243.11
2019-01-28T15:40:33.096Z,98246.63
2019-01-28T15:43:36.384Z,98258.88
2019-01-28T15:46:40.391Z,98266.60
2019-01-28T15:49:43.689Z,98279.58
2019-01-28T15:52:47.121Z,98288.11
2019-01-28T15:55:50.065Z,98285.79
2019-01-28T15:58:53.719Z,98291.70
2019-01-28T16:01:56.980Z,98301.70
2019-01-28T16:05:00.279Z,98315.97
2019-01-28T16:08:04.284Z,98324.79
2019-01-28T16:11:07.892Z,98340.77
2019-01-28T16:14:10.843Z,98340.37
2019-01-28T16:17:13.776Z,98354.17
2019-01-28T16:20:18.627Z,98368.25
2019-01-28T16:23:21.746Z,98371.34
2019-01-28T16:26:25.045Z,98370.42
2019-01-28T16:29:27.972Z,98375.09
2019-01-28T16:32:30.891Z,98372.45
2019-01-28T16:35:34.351Z,98391.63
2019-01-28T16:38:37.262Z,98404.42
2019-01-28T16:41:40.222Z,98410.36
2019-01-28T16:44:43.165Z,98426.10
2019-01-28T16:47:47.238Z,98427.36
2019-01-28T16:50:50.180Z,98422.91
2019-01-28T16:53:53.130Z,98425.76
2019-01-28T16:56:57.870Z,98433.86
2019-01-28T17:00:00.801Z,98441.09
2019-01-28T17:03:05.691Z,98439.26
2019-01-28T17:06:08.956Z,98450.48
2019-01-28T17:09:13.082Z,98455.09
2019-01-28T17:12:17.043Z,98466.81
2019-01-28T17:15:20.550Z,98477.59
2019-01-28T17:18:23.776Z,98475.44
2019-01-28T17:21:26.909Z,98485.06
2019-01-28T17:24:30.884Z,98495.80
2019-01-28T17:27:34.106Z,98501.71
2019-01-28T17:30:40.707Z,98504.22
2019-01-28T17:33:44.087Z,98507.41
2019-01-28T17:36:47.445Z,98512.91
2019-01-28T17:39:50.569Z,98523.64
2019-01-28T17:42:54.563Z,98522.07
2019-01-28T17:45:57.843Z,98523.61
2019-01-28T17:49:01.019Z,98528.71
2019-01-28T17:52:03.976Z,98540.95
2019-01-28T17:55:08.624Z,98541.39
2019-01-28T17:58:12.152Z,98546.48
2019-01-28T18:01:15.101Z,98550.03
2019-01-28T18:04:18.443Z,98555.27
2019-01-28T18:07:21.469Z,98551.88
2019-01-28T18:10:25.070Z,98567.67
2019-01-28T18:13:29.111Z,98569.42
2019-01-28T18:16:32.159Z,98581.73
2019-01-28T18:19:35.163Z,98575.98
2019-01-28T18:22:45.367Z,98586.31
2019-01-28T18:25:48.406Z,98600.82
2019-01-28T18:28:52.072Z,98606.80
2019-01-28T18:31:55.114Z,98600.82
2019-01-28T18:34:58.019Z,98606.03
2019-01-28T18:38:01.375Z,98605.42
2019-01-28T18:41:06.365Z,98606.45
2019-01-28T18:44:09.902Z,98614.13
2019-01-28T18:47:13.624Z,98615.16
2019-01-28T18:50:17.316Z,98629.61
2019-01-28T18:53:20.250Z,98632.09
2019-01-28T18:56:24.599Z,98632.00
2019-01-28T18:59:27.928Z,98637.47
2019-01-28T19:02:31.936Z,98649.81
2019-01-28T19:05:44.184Z,98650.73
2019-01-28T19:09:06.015Z,98662.49
2019-01-28T19:12:32.720Z,98657.38
2019-01-28T19:15:43.965Z,98658.78
2019-01-28T19:19:08.796Z,98666.14
2019-01-28T19:22:12.810Z,98678.19
2019-01-28T19:25:16.081Z,98692.64
2019-01-28T19:28:19.389Z,98686.15
2019-01-28T19:31:22.391Z,98698.24
2019-01-28T19:34:25.552Z,98691.60
2019-01-28T19:37:29.063Z,98703.13
2019-01-28T19:40:31.975Z,98706.45
2019-01-28T19:43:35.344Z,98710.27
2019-01-28T19:46:38.581Z,98712.70
2019-01-28T19:49:42.633Z,98714.24
2019-01-28T19:52:46.423Z,98723.08
2019-01-28T19:55:49.826Z,98732.50
2019-01-28T19:58:53.158Z,98743.55
2019-01-28T20:01:56.349Z,98750.11
2019-01-28T20:05:00.604Z,98750.99
2019-01-28T20:08:05.119Z,98744.00
2019-01-28T20:11:08.418Z,98759.34
2019-01-28T20:14:11.771Z,98760.66
2019-01-28T20:17:14.674Z,98761.97
2019-01-28T20:20:17.963Z,98759.52
2019-01-28T20:23:21.021Z,98765.43
2019-01-28T20:26:24.602Z,98762.67
2019-01-28T20:29:27.685Z,98773.72
2019-01-28T20:32:30.571Z,98773.67
2019-01-28T20:35:33.766Z,98782.79
2019-01-28T20:38:36.686Z,98787.23
2019-01-28T20:41:39.590Z,98788.66
2019-01-28T20:44:43.607Z,98795.99
2019-01-28T20:47:46.544Z,98801.20
2019-01-28T20:50:51.815Z,98808.08
2019-01-28T20:53:55.154Z,98799.36
2019-01-28T20:56:58.057Z,98803.17
2019-01-28T21:00:01.119Z,98810.16
2019-01-28T21:03:05.638Z,98813.92
2019-01-28T21:06:09.114Z,98816.08
2019-01-28T21:09:12.533Z,98820.53
2019-01-28T21:12:15.767Z,98827.80
2019-01-28T21:15:21.094Z,98822.35
2019-01-28T21:18:24.391Z,98827.87
2019-01-28T21:21:27.324Z,98833.17
2019-01-28T21:24:30.555Z,98828.12
2019-01-28T21:27:34.579Z,98826.64
2019-01-28T21:30:37.852Z,98831.97
2019-01-28T21:33:40.759Z,98840.94
2019-01-28T21:36:55.499Z,98842.39
2019-01-28T21:39:58.812Z,98842.77
2019-01-28T21:43:03.032Z,98843.01
2019-01-28T21:46:06.432Z,98846.20
2019-01-28T21:49:09.447Z,98847.93
2019-01-28T21:52:12.664Z,98858.41
2019-01-28T21:55:16.388Z,98863.15
2019-01-28T21:58:19.320Z,98871.23
2019-01-28T22:01:22.629Z,98883.00
2019-01-28T22:04:26.101Z,98869.92
2019-01-28T22:07:29.294Z,98876.02
2019-01-28T22:10:32.204Z,98882.58
2019-01-28T22:13:35.495Z,98884.73
2019-01-28T22:16:38.773Z,98878.01
2019-01-28T22:19:41.734Z,98885.03
2019-01-28T22:22:45.291Z,98889.89
2019-01-28T22:25:48.194Z,98896.00
2019-01-28T22:28:51.919Z,98892.87
2019-01-28T22:31:56.187Z,98893.63
2019-01-28T22:34:59.106Z,98896.80
2019-01-28T22:38:02.335Z,98903.52
2019-01-28T22:41:05.635Z,98913.00
2019-01-28T22:44:09.148Z,98909.50
2019-01-28T22:47:12.115Z,98911.73
2019-01-28T22:50:16.309Z,98919.44
2019-01-28T22:53:19.521Z,98916.34
2019-01-28T22:56:22.444Z,98927.35
2019-01-28T22:59:25.468Z,98927.73
2019-01-28T23:02:28.821Z,98922.58
2019-01-28T23:05:32.448Z,98926.94
2019-01-28T23:08:35.896Z,98929.60
2019-01-28T23:11:39.557Z,98927.86
2019-01-28T23:14:43.152Z,98927.03
2019-01-28T23:17:46.798Z,98926.93
2019-01-28T23:20:50.055Z,98932.27
2019-01-28T23:23:52.976Z,98939.69
2019-01-28T23:26:56.337Z,98941.41
2019-01-28T23:29:59.420Z,98939.67
2019-01-28T23:33:02.374Z,98949.13
2019-01-28T23:36:05.816Z,98943.03
2019-01-28T23:39:08.941Z,98946.03
2019-01-28T23:42:12.279Z,98943.91
2019-01-28T23:45:15.725Z,98947.45
2019-01-28T23:48:19.078Z,98954.92
2019-01-28T23:51:22.682Z,98962.92
2019-01-28T23:54:26.299Z,98960.64
2019-01-28T23:57:29.223Z,98972.87
